sensor_id;sensor_type;location;lat;lon;timestamp;temperature;humidity
24144;DHT22;12307;50.828;6.080;2023-03-01T00:02:16;19.50;40.30
24144;DHT22;12307;50.828;6.080;2023-03-01T00:04:42;19.50;40.30
24144;DHT22;12307;50.828;6.080;2023-03-01T00:07:09;19.50;40.30
24144;DHT22;12307;50.828;6.080;2023-03-01T00:09:36;19.50;40.30
24144;DHT22;12307;50.828;6.080;2023-03-01T00:12:02;19.50;40.30
24144;DHT22;12307;50.828;6.080;2023-03-01T00:14:27;19.50;40.30
24144;DHT22;12307;50.828;6.080;2023-03-01T00:16:53;19.50;40.40
24144;DHT22;12307;50.828;6.080;2023-03-01T00:19:19;19.50;40.40
24144;DHT22;12307;50.828;6.080;2023-03-01T00:21:45;19.50;40.40
24144;DHT22;12307;50.828;6.080;2023-03-01T00:24:12;19.40;40.30
24144;DHT22;12307;50.828;6.080;2023-03-01T00:26:38;19.40;40.40
24144;DHT22;12307;50.828;6.080;2023-03-01T00:29:04;19.50;40.50
24144;DHT22;12307;50.828;6.080;2023-03-01T00:31:31;19.40;40.40
24144;DHT22;12307;50.828;6.080;2023-03-01T00:34:00;19.40;40.50
24144;DHT22;12307;50.828;6.080;2023-03-01T00:36:28;19.40;40.50
24144;DHT22;12307;50.828;6.080;2023-03-01T00:38:54;19.50;40.50
24144;DHT22;12307;50.828;6.080;2023-03-01T00:41:21;19.40;40.50
24144;DHT22;12307;50.828;6.080;2023-03-01T00:43:52;19.50;40.60
24144;DHT22;12307;50.828;6.080;2023-03-01T00:46:20;19.50;40.60
24144;DHT22;12307;50.828;6.080;2023-03-01T00:48:46;19.40;40.50
24144;DHT22;12307;50.828;6.080;2023-03-01T00:51:13;19.40;40.50
24144;DHT22;12307;50.828;6.080;2023-03-01T00:53:39;19.40;40.50
24144;DHT22;12307;50.828;6.080;2023-03-01T00:56:06;19.50;40.60
24144;DHT22;12307;50.828;6.080;2023-03-01T00:58:34;19.40;40.50
24144;DHT22;12307;50.828;6.080;2023-03-01T01:01:00;19.40;40.60
24144;DHT22;12307;50.828;6.080;2023-03-01T01:03:27;19.40;40.60
24144;DHT22;12307;50.828;6.080;2023-03-01T01:05:53;19.40;40.60
24144;DHT22;12307;50.828;6.080;2023-03-01T01:08:19;19.40;40.60
24144;DHT22;12307;50.828;6.080;2023-03-01T01:10:45;19.40;40.60
24144;DHT22;12307;50.828;6.080;2023-03-01T01:13:11;19.40;40.60
24144;DHT22;12307;50.828;6.080;2023-03-01T01:15:38;19.40;40.60
24144;DHT22;12307;50.828;6.080;2023-03-01T01:18:04;19.40;40.70
24144;DHT22;12307;50.828;6.080;2023-03-01T01:20:29;19.40;40.70
24144;DHT22;12307;50.828;6.080;2023-03-01T01:22:55;19.40;40.70
24144;DHT22;12307;50.828;6.080;2023-03-01T01:25:21;19.40;40.70
24144;DHT22;12307;50.828;6.080;2023-03-01T01:27:47;19.40;40.70
24144;DHT22;12307;50.828;6.080;2023-03-01T01:30:13;19.40;40.70
24144;DHT22;12307;50.828;6.080;2023-03-01T01:32:40;19.40;40.70
24144;DHT22;12307;50.828;6.080;2023-03-01T01:35:06;19.40;40.70
24144;DHT22;12307;50.828;6.080;2023-03-01T01:37:34;19.40;40.70
24144;DHT22;12307;50.828;6.080;2023-03-01T01:40:00;19.30;40.70
24144;DHT22;12307;50.828;6.080;2023-03-01T01:42:27;19.30;40.70
24144;DHT22;12307;50.828;6.080;2023-03-01T01:45:27;19.30;40.70
24144;DHT22;12307;50.828;6.080;2023-03-01T01:47:56;19.40;40.80
24144;DHT22;12307;50.828;6.080;2023-03-01T01:50:23;19.40;40.80
24144;DHT22;12307;50.828;6.080;2023-03-01T01:52:51;19.30;40.80
24144;DHT22;12307;50.828;6.080;2023-03-01T01:55:20;19.30;40.80
24144;DHT22;12307;50.828;6.080;2023-03-01T01:57:51;19.30;40.80
24144;DHT22;12307;50.828;6.080;2023-03-01T02:00:20;19.30;40.80
24144;DHT22;12307;50.828;6.080;2023-03-01T02:02:48;19.30;40.80
24144;DHT22;12307;50.828;6.080;2023-03-01T02:05:27;19.30;40.80
24144;DHT22;12307;50.828;6.080;2023-03-01T02:07:54;19.30;40.80
24144;DHT22;12307;50.828;6.080;2023-03-01T02:10:21;19.30;40.80
24144;DHT22;12307;50.828;6.080;2023-03-01T02:12:48;19.30;40.80
24144;DHT22;12307;50.828;6.080;2023-03-01T02:15:14;19.30;40.80
24144;DHT22;12307;50.828;6.080;2023-03-01T02:17:40;19.30;40.80
24144;DHT22;12307;50.828;6.080;2023-03-01T02:20:12;19.30;40.90
24144;DHT22;12307;50.828;6.080;2023-03-01T02:22:43;19.30;40.90
24144;DHT22;12307;50.828;6.080;2023-03-01T02:25:30;19.30;40.90
24144;DHT22;12307;50.828;6.080;2023-03-01T02:28:02;19.30;40.90
24144;DHT22;12307;50.828;6.080;2023-03-01T02:30:32;19.30;40.90
24144;DHT22;12307;50.828;6.080;2023-03-01T02:32:59;19.30;40.90
24144;DHT22;12307;50.828;6.080;2023-03-01T02:35:29;19.30;40.90
24144;DHT22;12307;50.828;6.080;2023-03-01T02:37:56;19.30;40.90
24144;DHT22;12307;50.828;6.080;2023-03-01T02:40:23;19.30;40.90
24144;DHT22;12307;50.828;6.080;2023-03-01T02:42:51;19.30;41.00
24144;DHT22;12307;50.828;6.080;2023-03-01T02:45:19;19.20;40.90
24144;DHT22;12307;50.828;6.080;2023-03-01T02:47:46;19.20;40.90
24144;DHT22;12307;50.828;6.080;2023-03-01T02:50:25;19.30;41.00
24144;DHT22;12307;50.828;6.080;2023-03-01T02:53:00;19.30;41.00
24144;DHT22;12307;50.828;6.080;2023-03-01T02:55:27;19.30;41.10
24144;DHT22;12307;50.828;6.080;2023-03-01T02:57:53;19.20;41.00
24144;DHT22;12307;50.828;6.080;2023-03-01T03:00:23;19.20;41.00
24144;DHT22;12307;50.828;6.080;2023-03-01T03:02:52;19.20;41.00
24144;DHT22;12307;50.828;6.080;2023-03-01T03:05:20;19.20;41.00
24144;DHT22;12307;50.828;6.080;2023-03-01T03:07:47;19.20;41.00
24144;DHT22;12307;50.828;6.080;2023-03-01T03:10:16;19.20;41.00
24144;DHT22;12307;50.828;6.080;2023-03-01T03:12:42;19.20;41.00
24144;DHT22;12307;50.828;6.080;2023-03-01T03:15:10;19.20;41.00
24144;DHT22;12307;50.828;6.080;2023-03-01T03:17:39;19.20;41.00
24144;DHT22;12307;50.828;6.080;2023-03-01T03:20:08;19.20;41.00
24144;DHT22;12307;50.828;6.080;2023-03-01T03:22:37;19.20;41.00
24144;DHT22;12307;50.828;6.080;2023-03-01T03:25:04;19.20;41.00
24144;DHT22;12307;50.828;6.080;2023-03-01T03:27:30;19.20;41.00
24144;DHT22;12307;50.828;6.080;2023-03-01T03:29:57;19.20;41.00
24144;DHT22;12307;50.828;6.080;2023-03-01T03:32:23;19.20;41.00
24144;DHT22;12307;50.828;6.080;2023-03-01T03:34:48;19.20;41.00
24144;DHT22;12307;50.828;6.080;2023-03-01T03:37:16;19.20;41.10
24144;DHT22;12307;50.828;6.080;2023-03-01T03:40:00;19.20;41.00
24144;DHT22;12307;50.828;6.080;2023-03-01T03:42:26;19.20;41.00
24144;DHT22;12307;50.828;6.080;2023-03-01T03:44:51;19.20;41.00
24144;DHT22;12307;50.828;6.080;2023-03-01T03:47:17;19.20;41.00
24144;DHT22;12307;50.828;6.080;2023-03-01T03:49:43;19.20;41.10
24144;DHT22;12307;50.828;6.080;2023-03-01T03:52:08;19.20;41.10
24144;DHT22;12307;50.828;6.080;2023-03-01T03:54:40;19.20;41.10
24144;DHT22;12307;50.828;6.080;2023-03-01T03:57:06;19.20;41.10
24144;DHT22;12307;50.828;6.080;2023-03-01T03:59:31;19.10;41.10
24144;DHT22;12307;50.828;6.080;2023-03-01T04:01:57;19.10;41.00
24144;DHT22;12307;50.828;6.080;2023-03-01T04:04:23;19.20;41.10
24144;DHT22;12307;50.828;6.080;2023-03-01T04:06:48;19.20;41.20
24144;DHT22;12307;50.828;6.080;2023-03-01T04:09:14;19.20;41.20
24144;DHT22;12307;50.828;6.080;2023-03-01T04:11:41;19.10;41.10
24144;DHT22;12307;50.828;6.080;2023-03-01T04:14:07;19.10;41.10
24144;DHT22;12307;50.828;6.080;2023-03-01T04:16:32;19.10;41.20
24144;DHT22;12307;50.828;6.080;2023-03-01T04:18:58;19.10;41.20
24144;DHT22;12307;50.828;6.080;2023-03-01T04:21:25;19.10;41.20
24144;DHT22;12307;50.828;6.080;2023-03-01T04:23:51;19.10;41.20
24144;DHT22;12307;50.828;6.080;2023-03-01T04:26:18;19.10;41.20
24144;DHT22;12307;50.828;6.080;2023-03-01T04:28:46;19.10;41.20
24144;DHT22;12307;50.828;6.080;2023-03-01T04:31:14;19.10;41.20
24144;DHT22;12307;50.828;6.080;2023-03-01T04:33:45;19.10;41.20
24144;DHT22;12307;50.828;6.080;2023-03-01T04:36:12;19.10;41.20
24144;DHT22;12307;50.828;6.080;2023-03-01T04:38:39;19.10;41.20
24144;DHT22;12307;50.828;6.080;2023-03-01T04:41:05;19.10;41.20
24144;DHT22;12307;50.828;6.080;2023-03-01T04:43:31;19.10;41.20
24144;DHT22;12307;50.828;6.080;2023-03-01T04:46:01;19.10;41.20
24144;DHT22;12307;50.828;6.080;2023-03-01T04:48:28;19.10;41.20
24144;DHT22;12307;50.828;6.080;2023-03-01T04:50:53;19.10;41.20
24144;DHT22;12307;50.828;6.080;2023-03-01T04:53:19;19.10;41.20
24144;DHT22;12307;50.828;6.080;2023-03-01T04:55:45;19.10;41.20
24144;DHT22;12307;50.828;6.080;2023-03-01T04:58:10;19.10;41.20
24144;DHT22;12307;50.828;6.080;2023-03-01T05:00:36;19.10;41.20
24144;DHT22;12307;50.828;6.080;2023-03-01T05:03:03;19.10;41.20
24144;DHT22;12307;50.828;6.080;2023-03-01T05:05:31;19.10;41.20
24144;DHT22;12307;50.828;6.080;2023-03-01T05:07:59;19.10;41.20
24144;DHT22;12307;50.828;6.080;2023-03-01T05:10:26;19.10;41.20
24144;DHT22;12307;50.828;6.080;2023-03-01T05:12:52;19.10;41.20
24144;DHT22;12307;50.828;6.080;2023-03-01T05:15:18;19.10;41.20
24144;DHT22;12307;50.828;6.080;2023-03-01T05:17:44;19.10;41.20
24144;DHT22;12307;50.828;6.080;2023-03-01T05:20:12;19.10;41.20
24144;DHT22;12307;50.828;6.080;2023-03-01T05:22:38;19.00;41.20
24144;DHT22;12307;50.828;6.080;2023-03-01T05:25:05;19.00;41.20
24144;DHT22;12307;50.828;6.080;2023-03-01T05:27:31;19.00;41.30
24144;DHT22;12307;50.828;6.080;2023-03-01T05:29:56;19.10;41.30
24144;DHT22;12307;50.828;6.080;2023-03-01T05:32:22;19.10;41.30
24144;DHT22;12307;50.828;6.080;2023-03-01T05:34:48;19.00;41.30
24144;DHT22;12307;50.828;6.080;2023-03-01T05:37:15;19.00;41.30
24144;DHT22;12307;50.828;6.080;2023-03-01T05:39:41;19.00;41.30
24144;DHT22;12307;50.828;6.080;2023-03-01T05:42:10;19.00;41.30
24144;DHT22;12307;50.828;6.080;2023-03-01T05:44:36;19.00;41.30
24144;DHT22;12307;50.828;6.080;2023-03-01T05:47:02;19.00;41.30
24144;DHT22;12307;50.828;6.080;2023-03-01T05:49:27;19.00;41.30
24144;DHT22;12307;50.828;6.080;2023-03-01T05:51:53;19.00;41.30
24144;DHT22;12307;50.828;6.080;2023-03-01T05:54:21;19.00;41.30
24144;DHT22;12307;50.828;6.080;2023-03-01T05:56:47;19.00;41.30
24144;DHT22;12307;50.828;6.080;2023-03-01T05:59:13;19.00;41.30
24144;DHT22;12307;50.828;6.080;2023-03-01T06:01:40;19.00;41.30
24144;DHT22;12307;50.828;6.080;2023-03-01T06:04:06;19.00;41.30
24144;DHT22;12307;50.828;6.080;2023-03-01T06:06:34;19.00;41.30
24144;DHT22;12307;50.828;6.080;2023-03-01T06:08:59;19.00;41.30
24144;DHT22;12307;50.828;6.080;2023-03-01T06:11:26;19.00;41.30
24144;DHT22;12307;50.828;6.080;2023-03-01T06:13:52;19.00;41.30
24144;DHT22;12307;50.828;6.080;2023-03-01T06:16:18;19.00;41.30
24144;DHT22;12307;50.828;6.080;2023-03-01T06:18:44;19.00;41.30
24144;DHT22;12307;50.828;6.080;2023-03-01T06:21:09;19.00;41.30
24144;DHT22;12307;50.828;6.080;2023-03-01T06:23:35;19.00;41.30
24144;DHT22;12307;50.828;6.080;2023-03-01T06:26:05;19.00;41.30
24144;DHT22;12307;50.828;6.080;2023-03-01T06:28:32;19.00;41.30
24144;DHT22;12307;50.828;6.080;2023-03-01T06:30:58;19.00;41.30
24144;DHT22;12307;50.828;6.080;2023-03-01T06:33:23;19.00;41.30
24144;DHT22;12307;50.828;6.080;2023-03-01T06:35:49;19.00;41.30
24144;DHT22;12307;50.828;6.080;2023-03-01T06:38:15;19.00;41.50
24144;DHT22;12307;50.828;6.080;2023-03-01T06:40:42;19.00;41.30
24144;DHT22;12307;50.828;6.080;2023-03-01T06:43:08;19.00;41.30
24144;DHT22;12307;50.828;6.080;2023-03-01T06:45:36;19.00;41.30
24144;DHT22;12307;50.828;6.080;2023-03-01T06:48:03;19.00;41.30
24144;DHT22;12307;50.828;6.080;2023-03-01T06:50:29;19.00;41.30
24144;DHT22;12307;50.828;6.080;2023-03-01T06:52:55;19.00;41.30
24144;DHT22;12307;50.828;6.080;2023-03-01T06:55:21;19.00;41.30
24144;DHT22;12307;50.828;6.080;2023-03-01T06:57:47;19.00;41.40
24144;DHT22;12307;50.828;6.080;2023-03-01T07:00:14;19.00;41.30
24144;DHT22;12307;50.828;6.080;2023-03-01T07:02:41;19.10;41.30
24144;DHT22;12307;50.828;6.080;2023-03-01T07:05:07;19.10;41.30
24144;DHT22;12307;50.828;6.080;2023-03-01T07:07:33;19.10;41.30
24144;DHT22;12307;50.828;6.080;2023-03-01T07:09:58;19.10;41.30
24144;DHT22;12307;50.828;6.080;2023-03-01T07:12:24;19.10;41.30
24144;DHT22;12307;50.828;6.080;2023-03-01T07:14:50;19.10;41.30
24144;DHT22;12307;50.828;6.080;2023-03-01T07:17:15;19.10;41.30
24144;DHT22;12307;50.828;6.080;2023-03-01T07:19:42;19.10;41.30
24144;DHT22;12307;50.828;6.080;2023-03-01T07:22:08;19.10;41.30
24144;DHT22;12307;50.828;6.080;2023-03-01T07:24:34;19.10;41.30
24144;DHT22;12307;50.828;6.080;2023-03-01T07:27:00;19.10;41.30
24144;DHT22;12307;50.828;6.080;2023-03-01T07:29:26;19.10;41.20
24144;DHT22;12307;50.828;6.080;2023-03-01T07:31:51;19.20;41.90
24144;DHT22;12307;50.828;6.080;2023-03-01T07:34:17;19.20;41.30
24144;DHT22;12307;50.828;6.080;2023-03-01T07:36:44;19.20;41.30
24144;DHT22;12307;50.828;6.080;2023-03-01T07:39:11;19.20;41.30
24144;DHT22;12307;50.828;6.080;2023-03-01T07:41:36;19.20;41.30
24144;DHT22;12307;50.828;6.080;2023-03-01T07:44:02;19.20;41.30
24144;DHT22;12307;50.828;6.080;2023-03-01T07:46:28;19.20;41.30
24144;DHT22;12307;50.828;6.080;2023-03-01T07:48:54;19.20;41.30
24144;DHT22;12307;50.828;6.080;2023-03-01T07:51:19;19.30;41.30
24144;DHT22;12307;50.828;6.080;2023-03-01T07:53:47;19.30;41.30
24144;DHT22;12307;50.828;6.080;2023-03-01T07:56:16;19.30;41.20
24144;DHT22;12307;50.828;6.080;2023-03-01T07:58:44;19.40;41.30
24144;DHT22;12307;50.828;6.080;2023-03-01T08:01:12;19.40;41.20
24144;DHT22;12307;50.828;6.080;2023-03-01T08:03:38;19.50;41.20
24144;DHT22;12307;50.828;6.080;2023-03-01T08:06:05;19.60;41.10
24144;DHT22;12307;50.828;6.080;2023-03-01T08:08:31;19.80;41.00
24144;DHT22;12307;50.828;6.080;2023-03-01T08:10:59;20.10;40.90
24144;DHT22;12307;50.828;6.080;2023-03-01T08:13:25;20.40;40.70
24144;DHT22;12307;50.828;6.080;2023-03-01T08:15:51;20.70;40.60
24144;DHT22;12307;50.828;6.080;2023-03-01T08:18:18;20.90;40.30
24144;DHT22;12307;50.828;6.080;2023-03-01T08:20:44;21.20;40.20
24144;DHT22;12307;50.828;6.080;2023-03-01T08:23:10;21.50;40.20
24144;DHT22;12307;50.828;6.080;2023-03-01T08:25:36;21.80;39.90
24144;DHT22;12307;50.828;6.080;2023-03-01T08:28:04;22.00;39.70
24144;DHT22;12307;50.828;6.080;2023-03-01T08:30:30;22.30;39.60
24144;DHT22;12307;50.828;6.080;2023-03-01T08:32:56;22.50;39.40
24144;DHT22;12307;50.828;6.080;2023-03-01T08:35:22;22.70;39.30
24144;DHT22;12307;50.828;6.080;2023-03-01T08:37:48;23.00;39.20
24144;DHT22;12307;50.828;6.080;2023-03-01T08:40:14;23.20;39.20
24144;DHT22;12307;50.828;6.080;2023-03-01T08:42:40;23.40;39.10
24144;DHT22;12307;50.828;6.080;2023-03-01T08:45:09;23.60;39.10
24144;DHT22;12307;50.828;6.080;2023-03-01T08:47:35;23.80;39.10
24144;DHT22;12307;50.828;6.080;2023-03-01T08:50:02;24.00;39.10
24144;DHT22;12307;50.828;6.080;2023-03-01T08:52:28;24.20;39.10
24144;DHT22;12307;50.828;6.080;2023-03-01T08:54:55;24.50;39.10
24144;DHT22;12307;50.828;6.080;2023-03-01T08:57:21;24.70;39.10
24144;DHT22;12307;50.828;6.080;2023-03-01T08:59:47;24.90;39.00
24144;DHT22;12307;50.828;6.080;2023-03-01T09:02:15;25.10;38.90
24144;DHT22;12307;50.828;6.080;2023-03-01T09:04:42;25.30;38.80
24144;DHT22;12307;50.828;6.080;2023-03-01T09:07:08;25.40;38.60
24144;DHT22;12307;50.828;6.080;2023-03-01T09:09:34;25.40;38.30
24144;DHT22;12307;50.828;6.080;2023-03-01T09:12:01;25.60;38.10
24144;DHT22;12307;50.828;6.080;2023-03-01T09:14:27;25.60;37.80
24144;DHT22;12307;50.828;6.080;2023-03-01T09:16:53;25.70;37.60
24144;DHT22;12307;50.828;6.080;2023-03-01T09:19:20;25.80;37.40
24144;DHT22;12307;50.828;6.080;2023-03-01T09:21:45;25.90;37.10
24144;DHT22;12307;50.828;6.080;2023-03-01T09:24:18;26.10;37.00
24144;DHT22;12307;50.828;6.080;2023-03-01T09:26:45;26.20;36.70
24144;DHT22;12307;50.828;6.080;2023-03-01T09:29:13;26.30;36.40
24144;DHT22;12307;50.828;6.080;2023-03-01T09:31:40;26.40;36.20
24144;DHT22;12307;50.828;6.080;2023-03-01T09:34:07;26.50;35.90
24144;DHT22;12307;50.828;6.080;2023-03-01T09:36:34;26.70;35.80
24144;DHT22;12307;50.828;6.080;2023-03-01T09:39:00;26.80;35.70
24144;DHT22;12307;50.828;6.080;2023-03-01T09:41:38;27.10;35.70
24144;DHT22;12307;50.828;6.080;2023-03-01T09:44:14;27.20;35.60
24144;DHT22;12307;50.828;6.080;2023-03-01T09:46:43;27.50;35.50
24144;DHT22;12307;50.828;6.080;2023-03-01T09:49:13;27.70;35.50
24144;DHT22;12307;50.828;6.080;2023-03-01T09:51:53;27.80;35.30
24144;DHT22;12307;50.828;6.080;2023-03-01T09:54:19;28.00;35.10
24144;DHT22;12307;50.828;6.080;2023-03-01T09:56:49;28.10;35.00
24144;DHT22;12307;50.828;6.080;2023-03-01T09:59:25;28.30;34.90
24144;DHT22;12307;50.828;6.080;2023-03-01T10:01:55;28.40;34.80
24144;DHT22;12307;50.828;6.080;2023-03-01T10:04:28;28.50;34.70
24144;DHT22;12307;50.828;6.080;2023-03-01T10:07:26;28.70;34.60
24144;DHT22;12307;50.828;6.080;2023-03-01T10:09:52;28.80;34.40
24144;DHT22;12307;50.828;6.080;2023-03-01T10:12:20;28.90;34.40
24144;DHT22;12307;50.828;6.080;2023-03-01T10:14:53;29.00;34.30
24144;DHT22;12307;50.828;6.080;2023-03-01T10:17:28;29.10;34.20
24144;DHT22;12307;50.828;6.080;2023-03-01T10:19:58;29.10;34.10
24144;DHT22;12307;50.828;6.080;2023-03-01T10:22:32;29.20;34.00
24144;DHT22;12307;50.828;6.080;2023-03-01T10:24:59;29.20;34.00
24144;DHT22;12307;50.828;6.080;2023-03-01T10:27:34;29.20;33.90
24144;DHT22;12307;50.828;6.080;2023-03-01T10:30:09;29.10;33.60
24144;DHT22;12307;50.828;6.080;2023-03-01T10:32:37;29.10;33.40
24144;DHT22;12307;50.828;6.080;2023-03-01T10:35:16;28.90;33.10
24144;DHT22;12307;50.828;6.080;2023-03-01T10:37:56;28.60;32.80
24144;DHT22;12307;50.828;6.080;2023-03-01T10:40:22;28.30;32.60
24144;DHT22;12307;50.828;6.080;2023-03-01T10:42:49;28.20;32.50
24144;DHT22;12307;50.828;6.080;2023-03-01T10:45:23;28.20;32.30
24144;DHT22;12307;50.828;6.080;2023-03-01T10:48:04;28.30;32.10
24144;DHT22;12307;50.828;6.080;2023-03-01T10:50:30;28.40;31.70
24144;DHT22;12307;50.828;6.080;2023-03-01T10:52:59;28.50;31.50
24144;DHT22;12307;50.828;6.080;2023-03-01T10:55:30;28.70;31.30
24144;DHT22;12307;50.828;6.080;2023-03-01T10:58:16;28.80;31.00
24144;DHT22;12307;50.828;6.080;2023-03-01T11:00:49;28.90;30.70
24144;DHT22;12307;50.828;6.080;2023-03-01T11:03:19;29.00;31.10
24144;DHT22;12307;50.828;6.080;2023-03-01T11:06:12;29.10;30.40
24144;DHT22;12307;50.828;6.080;2023-03-01T11:08:47;29.10;30.20
24144;DHT22;12307;50.828;6.080;2023-03-01T11:11:19;29.10;30.10
24144;DHT22;12307;50.828;6.080;2023-03-01T11:13:57;29.10;30.00
24144;DHT22;12307;50.828;6.080;2023-03-01T11:16:31;29.10;30.00
24144;DHT22;12307;50.828;6.080;2023-03-01T11:18:59;29.00;29.90
24144;DHT22;12307;50.828;6.080;2023-03-01T11:21:28;29.00;29.90
24144;DHT22;12307;50.828;6.080;2023-03-01T11:23:57;28.90;29.80
24144;DHT22;12307;50.828;6.080;2023-03-01T11:26:25;28.90;29.90
24144;DHT22;12307;50.828;6.080;2023-03-01T11:28:55;28.80;29.90
24144;DHT22;12307;50.828;6.080;2023-03-01T11:31:23;28.70;29.80
24144;DHT22;12307;50.828;6.080;2023-03-01T11:33:54;28.50;29.80
24144;DHT22;12307;50.828;6.080;2023-03-01T11:36:27;28.40;29.70
24144;DHT22;12307;50.828;6.080;2023-03-01T11:38:56;28.30;29.80
24144;DHT22;12307;50.828;6.080;2023-03-01T11:41:30;28.10;29.80
24144;DHT22;12307;50.828;6.080;2023-03-01T11:43:59;28.00;29.80
24144;DHT22;12307;50.828;6.080;2023-03-01T11:46:34;27.80;29.80
24144;DHT22;12307;50.828;6.080;2023-03-01T11:49:16;27.60;29.80
24144;DHT22;12307;50.828;6.080;2023-03-01T11:51:48;27.40;29.70
24144;DHT22;12307;50.828;6.080;2023-03-01T11:54:29;27.20;29.60
24144;DHT22;12307;50.828;6.080;2023-03-01T11:57:00;27.00;29.50
24144;DHT22;12307;50.828;6.080;2023-03-01T12:06:10;26.40;29.40
24144;DHT22;12307;50.828;6.080;2023-03-01T12:08:40;26.30;29.60
24144;DHT22;12307;50.828;6.080;2023-03-01T12:11:17;26.10;29.70
24144;DHT22;12307;50.828;6.080;2023-03-01T12:14:02;26.00;29.80
24144;DHT22;12307;50.828;6.080;2023-03-01T12:16:47;25.90;30.00
24144;DHT22;12307;50.828;6.080;2023-03-01T12:19:31;25.80;30.50
24144;DHT22;12307;50.828;6.080;2023-03-01T12:22:09;25.70;31.10
24144;DHT22;12307;50.828;6.080;2023-03-01T12:24:57;25.60;31.10
24144;DHT22;12307;50.828;6.080;2023-03-01T12:27:38;25.50;31.40
24144;DHT22;12307;50.828;6.080;2023-03-01T12:30:18;25.40;31.70
24144;DHT22;12307;50.828;6.080;2023-03-01T12:32:55;25.40;31.70
24144;DHT22;12307;50.828;6.080;2023-03-01T12:35:50;25.30;31.60
24144;DHT22;12307;50.828;6.080;2023-03-01T12:38:31;25.20;31.70
24144;DHT22;12307;50.828;6.080;2023-03-01T12:41:13;25.20;32.00
24144;DHT22;12307;50.828;6.080;2023-03-01T12:43:55;25.10;32.00
24144;DHT22;12307;50.828;6.080;2023-03-01T12:46:32;25.10;32.20
24144;DHT22;12307;50.828;6.080;2023-03-01T12:49:07;25.10;32.60
24144;DHT22;12307;50.828;6.080;2023-03-01T12:51:35;25.10;32.60
24144;DHT22;12307;50.828;6.080;2023-03-01T12:54:07;25.00;32.60
24144;DHT22;12307;50.828;6.080;2023-03-01T12:56:37;25.00;32.80
24144;DHT22;12307;50.828;6.080;2023-03-01T12:59:12;25.10;33.00
24144;DHT22;12307;50.828;6.080;2023-03-01T13:01:45;25.10;33.30
24144;DHT22;12307;50.828;6.080;2023-03-01T13:04:22;25.10;33.40
24144;DHT22;12307;50.828;6.080;2023-03-01T13:06:58;25.20;33.60
24144;DHT22;12307;50.828;6.080;2023-03-01T13:09:31;25.30;33.80
24144;DHT22;12307;50.828;6.080;2023-03-01T13:11:58;25.30;33.90
24144;DHT22;12307;50.828;6.080;2023-03-01T13:14:45;25.40;34.10
24144;DHT22;12307;50.828;6.080;2023-03-01T13:17:33;25.30;34.20
24144;DHT22;12307;50.828;6.080;2023-03-01T13:19:59;25.20;34.50
24144;DHT22;12307;50.828;6.080;2023-03-01T13:22:30;25.10;34.70
24144;DHT22;12307;50.828;6.080;2023-03-01T13:25:18;25.10;35.00
24144;DHT22;12307;50.828;6.080;2023-03-01T13:27:45;25.00;35.20
24144;DHT22;12307;50.828;6.080;2023-03-01T13:30:43;25.00;35.30
24144;DHT22;12307;50.828;6.080;2023-03-01T13:33:33;24.90;35.60
24144;DHT22;12307;50.828;6.080;2023-03-01T13:36:07;24.90;35.60
24144;DHT22;12307;50.828;6.080;2023-03-01T13:38:41;24.90;35.70
24144;DHT22;12307;50.828;6.080;2023-03-01T13:41:10;24.80;35.80
24144;DHT22;12307;50.828;6.080;2023-03-01T13:43:36;24.70;35.80
24144;DHT22;12307;50.828;6.080;2023-03-01T13:46:11;24.60;36.00
24144;DHT22;12307;50.828;6.080;2023-03-01T13:48:40;24.40;36.10
24144;DHT22;12307;50.828;6.080;2023-03-01T13:51:09;24.30;36.10
24144;DHT22;12307;50.828;6.080;2023-03-01T13:53:38;24.10;36.10
24144;DHT22;12307;50.828;6.080;2023-03-01T13:56:08;24.00;36.10
24144;DHT22;12307;50.828;6.080;2023-03-01T13:58:46;23.80;36.00
24144;DHT22;12307;50.828;6.080;2023-03-01T14:01:22;23.70;35.90
24144;DHT22;12307;50.828;6.080;2023-03-01T14:03:48;23.50;36.00
24144;DHT22;12307;50.828;6.080;2023-03-01T14:06:16;23.40;36.10
24144;DHT22;12307;50.828;6.080;2023-03-01T14:08:44;23.40;36.20
24144;DHT22;12307;50.828;6.080;2023-03-01T14:14:27;23.10;35.90
24144;DHT22;12307;50.828;6.080;2023-03-01T14:17:04;23.00;36.00
24144;DHT22;12307;50.828;6.080;2023-03-01T14:19:33;23.00;36.20
24144;DHT22;12307;50.828;6.080;2023-03-01T14:22:03;22.90;36.30
24144;DHT22;12307;50.828;6.080;2023-03-01T14:24:30;22.90;36.30
24144;DHT22;12307;50.828;6.080;2023-03-01T14:26:58;22.90;36.30
24144;DHT22;12307;50.828;6.080;2023-03-01T14:29:28;22.80;36.30
24144;DHT22;12307;50.828;6.080;2023-03-01T14:32:11;22.80;36.40
24144;DHT22;12307;50.828;6.080;2023-03-01T14:34:42;22.80;36.40
24144;DHT22;12307;50.828;6.080;2023-03-01T14:37:11;22.80;36.50
24144;DHT22;12307;50.828;6.080;2023-03-01T14:39:37;22.80;36.60
24144;DHT22;12307;50.828;6.080;2023-03-01T14:42:04;22.80;36.70
24144;DHT22;12307;50.828;6.080;2023-03-01T14:44:30;22.80;36.70
24144;DHT22;12307;50.828;6.080;2023-03-01T14:46:59;22.70;36.80
24144;DHT22;12307;50.828;6.080;2023-03-01T14:49:30;22.70;36.90
24144;DHT22;12307;50.828;6.080;2023-03-01T14:51:59;22.70;37.10
24144;DHT22;12307;50.828;6.080;2023-03-01T14:54:28;22.60;37.10
24144;DHT22;12307;50.828;6.080;2023-03-01T14:57:00;22.50;37.20
24144;DHT22;12307;50.828;6.080;2023-03-01T14:59:27;22.50;37.30
24144;DHT22;12307;50.828;6.080;2023-03-01T15:01:55;22.40;37.40
24144;DHT22;12307;50.828;6.080;2023-03-01T15:04:23;22.40;37.50
24144;DHT22;12307;50.828;6.080;2023-03-01T15:06:52;22.30;37.50
24144;DHT22;12307;50.828;6.080;2023-03-01T15:09:18;22.20;37.60
24144;DHT22;12307;50.828;6.080;2023-03-01T15:11:45;22.20;37.70
24144;DHT22;12307;50.828;6.080;2023-03-01T15:14:39;22.10;37.80
24144;DHT22;12307;50.828;6.080;2023-03-01T15:17:20;22.00;37.80
24144;DHT22;12307;50.828;6.080;2023-03-01T15:19:49;22.00;38.00
24144;DHT22;12307;50.828;6.080;2023-03-01T15:22:17;22.00;38.00
24144;DHT22;12307;50.828;6.080;2023-03-01T15:24:46;21.90;38.00
24144;DHT22;12307;50.828;6.080;2023-03-01T15:27:15;21.90;38.10
24144;DHT22;12307;50.828;6.080;2023-03-01T15:29:48;21.90;38.80
24144;DHT22;12307;50.828;6.080;2023-03-01T15:32:26;21.80;38.20
24144;DHT22;12307;50.828;6.080;2023-03-01T15:34:52;21.80;38.20
24144;DHT22;12307;50.828;6.080;2023-03-01T15:37:39;21.70;38.30
24144;DHT22;12307;50.828;6.080;2023-03-01T15:40:19;21.70;38.30
24144;DHT22;12307;50.828;6.080;2023-03-01T15:42:46;21.70;38.40
24144;DHT22;12307;50.828;6.080;2023-03-01T15:45:22;21.60;38.40
24144;DHT22;12307;50.828;6.080;2023-03-01T15:47:50;21.60;38.50
24144;DHT22;12307;50.828;6.080;2023-03-01T15:50:19;21.50;38.50
24144;DHT22;12307;50.828;6.080;2023-03-01T15:52:47;21.50;38.60
24144;DHT22;12307;50.828;6.080;2023-03-01T15:55:16;21.50;38.60